Winn, MI

04:12 AM EDT on Agosto 21, 2014 (GMT -0400)
Earth and Atmospheric Sciences, CMU | Change Station
CLOSE
Current Station
Personal Weather Stations
Location: Mount Pleasant, MI
Elevation: 794 ft
Nearby Weather Stations

Elev 794 ft 43.58 °N, 84.77 °W | Updated 29 seconds ago

Clear
Despexado
58.8 °F
Feels Like 58.8 °F
N
1.8
Vento Variable Vento from NO
Gusts 2.5 mph

Hoxe
High -- | Low -- °F
--% Chance of Precip.
Yesterday
High -- | Low -- °F
Precip. -- pol
6:51 AM 8:33 PM
Waning Crescent, 16% visible
Presión 29.96 pol
Visibilidade 10.0 Millas
Nubes Despexado
Nivel de Rosada 58 °F
Humidade 98%
Rainfall -999.00 pol
Fondo da neve Not available.
UV 0 out of 12
Pollen 9.90 out of 12
Ozone Good
PM2.5 Good
Flu Activity Not available.
METAR KMOP 210757Z AUTO 00000KT 10SM CLR 15/15 A2996 RMK AO2 T01520147

More Conditions Fewer Conditions

Presión 29.96 pol
Visibilidade 10.0 Millas
Nubes Despexado
Nivel de Rosada 58 °F
Humidade 98%
Rainfall -999.00 pol
Fondo da neve Not available.
UV 0 out of 12
Pollen 9.90 out of 12
Ozone Good
PM2.5 Good
Flu Activity Not available.
METAR KMOP 210757Z AUTO 00000KT 10SM CLR 15/15 A2996 RMK AO2 T01520147

More Conditions Fewer Conditions

10-Day Weather Forecast

Almanac

Astronomía

Aug. 21, 2014 Rise Set
Tempo actual 6:51 AM EDT 8:33 PM EDT
Crepúsculo civil 6:20 AM EDT 9:03 PM EDT
Crepúsculo náutico 5:43 AM EDT 9:40 PM EDT
Crepúsculo astronómico 5:03 AM EDT 10:20 PM EDT
Lúa 3:17 AM EDT 6:04 PM EDT
Lonxitude da luz visíbel 14h 43m
Length of Day
13h 42m
Tomorrow will be 2m 45s shorter.
Waning Crescent, 16% of the Moon is Illuminated
Hoxe
Waning Crescent
Aug 25
New
Sep 2
Cuarto crescente
Sep 8
Lúa chea
Sep 15
Cuarto menguante

Today's Extremes

State Highs State Lows

Community

WunderPhotos

Upload Photos

1,745,867 photos uploaded!

Nearby

Air Quality

  Air Quality AQ Index Pollutant
Yesterday Good
OZONE
Yesterday Good
PM2.5
Actual Good
PM2.5
Actual Good
OZONE
Xoves Moderate
PM2.5
Xoves Good
OZONE

Snow Depth

Station Depth Elevation
No new snow has been reported.

Earthquake Activity

Cidade Distance Mag. Time & Date
No recent earthquake activity has been reported nearby.
Minimum magnitude displayed is 2.5.

Coastal Water Temperatures

Lugar Temperatura
No Stations Reporting

Nearby Weather Stations